createdAt,value
2018-03-01T00:00:10.811Z,63.19
2018-03-01T00:02:36.560Z,62.82
2018-03-01T00:05:02.323Z,62.87
2018-03-01T00:07:28.093Z,61.33
2018-03-01T00:09:53.852Z,61.39
2018-03-01T00:12:19.597Z,61.63
2018-03-01T00:14:45.359Z,63.09
2018-03-01T00:17:11.096Z,61.38
2018-03-01T00:19:36.843Z,61.55
2018-03-01T00:22:02.635Z,61.97
2018-03-01T00:24:28.382Z,61.63
2018-03-01T00:26:54.130Z,60.95
2018-03-01T00:29:19.894Z,61.12
2018-03-01T00:31:45.629Z,61.70
2018-03-01T00:34:11.399Z,61.67
2018-03-01T00:36:37.149Z,61.74
2018-03-01T00:39:02.930Z,62.07
2018-03-01T00:41:28.682Z,62.83
2018-03-01T00:44:01.438Z,62.46
2018-03-01T00:46:27.190Z,62.36
2018-03-01T00:48:52.944Z,62.15
2018-03-01T00:51:18.711Z,62.05
2018-03-01T00:53:44.453Z,62.29
2018-03-01T00:56:10.205Z,62.33
2018-03-01T00:58:35.953Z,62.31
2018-03-01T01:01:01.706Z,62.56
2018-03-01T01:03:27.460Z,62.34
2018-03-01T01:05:53.219Z,62.53
2018-03-01T01:08:18.969Z,62.10
2018-03-01T01:10:44.723Z,62.62
2018-03-01T01:13:10.466Z,62.65
2018-03-01T01:15:36.219Z,62.22
2018-03-01T01:18:01.964Z,62.58
2018-03-01T01:20:27.721Z,62.83
2018-03-01T01:22:53.471Z,62.98
2018-03-01T01:25:19.221Z,62.78
2018-03-01T01:27:44.981Z,63.15
2018-03-01T01:30:10.746Z,63.21
2018-03-01T01:32:36.492Z,62.85
2018-03-01T01:35:02.251Z,62.88
2018-03-01T01:37:28.012Z,63.11
2018-03-01T01:39:53.763Z,62.05
2018-03-01T01:42:19.515Z,61.16
2018-03-01T01:44:45.250Z,60.76
2018-03-01T01:47:11.010Z,60.55
2018-03-01T01:49:36.757Z,60.59
2018-03-01T01:52:02.514Z,60.10
2018-03-01T01:54:28.249Z,60.90
2018-03-01T01:56:53.989Z,61.47
2018-03-01T01:59:19.725Z,61.86
2018-03-01T02:01:45.488Z,62.12
2018-03-01T02:04:11.266Z,62.53
2018-03-01T02:06:37.027Z,63.44
2018-03-01T02:09:02.786Z,63.61
2018-03-01T02:11:28.554Z,64.29
2018-03-01T02:13:54.301Z,64.95
2018-03-01T02:16:20.050Z,64.78
2018-03-01T02:18:45.803Z,65.07
2018-03-01T02:21:11.559Z,65.45
2018-03-01T02:23:37.318Z,65.57
2018-03-01T02:26:03.058Z,65.19
2018-03-01T02:28:28.814Z,65.66
2018-03-01T02:30:54.566Z,65.72
2018-03-01T02:33:20.334Z,65.38
2018-03-01T02:35:46.082Z,65.49
2018-03-01T02:38:11.833Z,65.02
2018-03-01T02:40:37.592Z,64.12
2018-03-01T02:43:03.340Z,63.95
2018-03-01T02:45:29.096Z,63.83
2018-03-01T02:47:54.846Z,63.00
2018-03-01T02:50:20.587Z,63.17
2018-03-01T02:52:46.338Z,62.73
2018-03-01T02:55:12.077Z,62.50
2018-03-01T02:57:37.834Z,62.12
2018-03-01T03:00:03.589Z,62.18
2018-03-01T03:02:29.328Z,62.32
2018-03-01T03:04:55.078Z,63.00
2018-03-01T03:07:20.814Z,62.70
2018-03-01T03:09:46.569Z,62.83
2018-03-01T03:12:12.318Z,62.98
2018-03-01T03:14:38.071Z,63.19
2018-03-01T03:17:03.809Z,63.53
2018-03-01T03:19:29.562Z,64.07
2018-03-01T03:21:55.294Z,64.34
2018-03-01T03:24:21.058Z,64.09
2018-03-01T03:26:46.791Z,64.51
2018-03-01T03:29:12.543Z,64.72
2018-03-01T03:31:38.288Z,65.27
2018-03-01T03:34:04.045Z,65.81
2018-03-01T03:36:29.794Z,65.74
2018-03-01T03:38:55.557Z,66.00
2018-03-01T03:41:21.302Z,66.20
2018-03-01T03:43:47.061Z,66.29
2018-03-01T03:46:13.774Z,66.49
2018-03-01T03:48:39.518Z,66.81
2018-03-01T03:51:05.278Z,66.99
2018-03-01T03:53:31.023Z,67.10
2018-03-01T03:55:56.765Z,67.52
2018-03-01T03:58:22.518Z,67.46
2018-03-01T04:00:48.276Z,68.00
2018-03-01T04:03:14.021Z,68.11
2018-03-01T04:05:39.773Z,67.98
2018-03-01T04:08:05.514Z,68.04
2018-03-01T04:10:31.255Z,68.31
2018-03-01T04:12:56.998Z,68.84
2018-03-01T04:15:22.758Z,68.42
2018-03-01T04:17:48.495Z,68.89
2018-03-01T04:20:20.356Z,68.80
2018-03-01T04:22:46.098Z,68.62
2018-03-01T04:25:11.850Z,68.98
2018-03-01T04:27:37.591Z,68.84
2018-03-01T04:30:03.362Z,69.30
2018-03-01T04:32:29.102Z,69.29
2018-03-01T04:34:54.853Z,69.26
2018-03-01T04:37:20.589Z,69.26
2018-03-01T04:39:46.356Z,69.88
2018-03-01T04:42:12.094Z,69.60
2018-03-01T04:44:37.860Z,69.68
2018-03-01T04:47:03.620Z,70.26
2018-03-01T04:49:29.480Z,70.63
2018-03-01T04:51:55.225Z,70.76
2018-03-01T04:54:20.971Z,70.39
2018-03-01T04:56:46.728Z,70.88
2018-03-01T04:59:12.476Z,70.63
2018-03-01T05:01:38.240Z,70.81
2018-03-01T05:04:04.037Z,70.85
2018-03-01T05:06:29.737Z,71.06
2018-03-01T05:08:55.470Z,71.39
2018-03-01T05:11:21.203Z,70.93
2018-03-01T05:13:46.931Z,70.76
2018-03-01T05:16:12.708Z,71.09
2018-03-01T05:18:38.414Z,71.32
2018-03-01T05:21:04.175Z,71.50
2018-03-01T05:23:29.918Z,71.00
2018-03-01T05:25:55.660Z,70.79
2018-03-01T05:28:21.394Z,70.45
2018-03-01T05:30:47.138Z,70.74
2018-03-01T05:33:12.887Z,70.23
2018-03-01T05:35:38.614Z,70.29
2018-03-01T05:38:04.356Z,70.06
2018-03-01T05:40:30.099Z,70.11
2018-03-01T05:42:55.848Z,69.89
2018-03-01T05:45:21.573Z,70.02
2018-03-01T05:47:47.333Z,69.23
2018-03-01T05:50:13.060Z,69.37
2018-03-01T05:52:38.818Z,69.14
2018-03-01T05:55:04.565Z,68.60
2018-03-01T05:57:30.307Z,68.25
2018-03-01T06:00:10.985Z,67.99
2018-03-01T06:02:36.754Z,67.84
2018-03-01T06:05:02.478Z,67.40
2018-03-01T06:07:28.224Z,67.49
2018-03-01T06:09:53.954Z,67.00
2018-03-01T06:12:19.706Z,66.90
2018-03-01T06:14:45.429Z,66.97
2018-03-01T06:17:11.174Z,67.20
2018-03-01T06:19:36.907Z,67.17
2018-03-01T06:22:02.646Z,67.28
2018-03-01T06:24:28.374Z,67.63
2018-03-01T06:26:54.101Z,67.72
2018-03-01T06:29:19.849Z,68.11
2018-03-01T06:31:45.582Z,68.33
2018-03-01T06:34:11.325Z,68.63
2018-03-01T06:36:37.060Z,68.67
2018-03-01T06:39:02.799Z,69.00
2018-03-01T06:41:28.522Z,69.16
2018-03-01T06:43:54.319Z,69.17
2018-03-01T06:46:20.006Z,69.54
2018-03-01T06:48:45.738Z,69.30
2018-03-01T06:51:11.479Z,69.96
2018-03-01T06:53:37.477Z,69.84
2018-03-01T06:56:03.214Z,70.46
2018-03-01T06:58:28.950Z,70.03
2018-03-01T07:00:54.682Z,70.14
2018-03-01T07:03:20.419Z,70.57
2018-03-01T07:05:46.173Z,70.49
2018-03-01T07:08:11.897Z,70.53
2018-03-01T07:10:37.633Z,71.03
2018-03-01T07:13:03.366Z,71.22
2018-03-01T07:15:29.107Z,70.76
2018-03-01T07:17:54.842Z,70.51
2018-03-01T07:20:20.588Z,69.93
2018-03-01T07:22:46.322Z,69.48
2018-03-01T07:25:12.054Z,69.18
2018-03-01T07:27:37.825Z,69.19
2018-03-01T07:30:03.571Z,68.95
2018-03-01T07:32:29.338Z,68.25
2018-03-01T07:34:55.086Z,67.67
2018-03-01T07:37:20.826Z,67.30
2018-03-01T07:39:46.571Z,66.82
2018-03-01T07:42:12.297Z,66.92
2018-03-01T07:44:38.060Z,66.28
2018-03-01T07:47:03.809Z,65.50
2018-03-01T07:49:29.550Z,65.03
2018-03-01T07:51:55.302Z,64.98
2018-03-01T07:54:21.059Z,64.36
2018-03-01T07:56:46.785Z,63.86
2018-03-01T07:59:12.525Z,63.64
2018-03-01T08:01:38.274Z,63.28
2018-03-01T08:04:04.045Z,63.21
2018-03-01T08:06:29.824Z,63.52
2018-03-01T08:08:55.590Z,63.04
2018-03-01T08:11:21.349Z,63.36
2018-03-01T08:13:47.097Z,62.44
2018-03-01T08:16:12.859Z,61.99
2018-03-01T08:18:38.630Z,61.68
2018-03-01T08:21:04.370Z,62.11
2018-03-01T08:23:30.126Z,61.28
2018-03-01T08:25:55.944Z,61.10
2018-03-01T08:28:21.696Z,61.15
2018-03-01T08:30:47.442Z,60.87
2018-03-01T08:33:13.185Z,62.03
2018-03-01T08:35:38.957Z,62.28
2018-03-01T08:38:04.702Z,62.42
2018-03-01T08:40:30.454Z,62.84
2018-03-01T08:42:56.199Z,62.61
2018-03-01T08:45:21.960Z,62.67
2018-03-01T08:47:47.694Z,63.07
2018-03-01T08:50:13.458Z,63.78
2018-03-01T08:52:39.192Z,63.48
2018-03-01T08:55:04.935Z,63.14
2018-03-01T08:57:30.667Z,63.13
2018-03-01T08:59:56.441Z,63.90
2018-03-01T09:02:22.179Z,64.13
2018-03-01T09:04:47.919Z,63.52
2018-03-01T09:07:13.668Z,63.39
2018-03-01T09:09:39.412Z,63.31
2018-03-01T09:12:05.174Z,63.94
2018-03-01T09:14:30.921Z,63.84
2018-03-01T09:16:56.669Z,63.62
2018-03-01T09:19:22.421Z,63.79
2018-03-01T09:21:48.152Z,63.02
2018-03-01T09:24:13.904Z,63.55
2018-03-01T09:26:39.646Z,62.20
2018-03-01T09:29:05.382Z,63.03
2018-03-01T09:31:31.137Z,62.55
2018-03-01T09:33:56.898Z,63.03
2018-03-01T09:36:22.618Z,62.07
2018-03-01T09:38:48.361Z,61.68
2018-03-01T09:41:14.087Z,62.78
2018-03-01T09:43:39.815Z,61.59
2018-03-01T09:46:05.543Z,61.71
2018-03-01T09:48:31.287Z,62.41
2018-03-01T09:50:57.014Z,62.49
2018-03-01T09:53:22.757Z,62.65
2018-03-01T09:55:48.486Z,63.44
2018-03-01T09:58:14.231Z,63.34
2018-03-01T10:00:39.964Z,63.74
2018-03-01T10:03:05.695Z,63.71
2018-03-01T10:05:31.430Z,62.95
2018-03-01T10:07:57.162Z,61.94
2018-03-01T10:10:22.911Z,63.43
2018-03-01T10:12:48.636Z,63.26
2018-03-01T10:15:14.372Z,62.60
2018-03-01T10:17:40.094Z,62.63
2018-03-01T10:20:05.824Z,63.59
2018-03-01T10:22:31.567Z,63.55
2018-03-01T10:24:57.295Z,62.40
2018-03-01T10:27:25.915Z,62.42
2018-03-01T10:29:51.638Z,61.69
2018-03-01T10:32:17.353Z,59.95
2018-03-01T10:34:43.090Z,59.31
2018-03-01T10:37:08.879Z,59.15
2018-03-01T10:39:34.557Z,58.65
2018-03-01T10:42:00.278Z,57.28
2018-03-01T10:44:26.018Z,57.31
2018-03-01T10:46:51.746Z,54.40
2018-03-01T10:49:17.486Z,54.33
2018-03-01T10:51:43.218Z,53.42
2018-03-01T10:54:08.949Z,53.09
2018-03-01T10:56:34.670Z,51.39
2018-03-01T10:59:00.402Z,51.72
2018-03-01T11:01:31.974Z,51.07
2018-03-01T11:03:57.693Z,51.02
2018-03-01T11:06:23.430Z,51.52
2018-03-01T11:08:49.186Z,51.32
2018-03-01T11:11:14.947Z,50.84
2018-03-01T11:13:40.690Z,50.30
2018-03-01T11:16:06.432Z,51.04
2018-03-01T11:18:32.169Z,51.74
2018-03-01T11:20:57.926Z,52.18
2018-03-01T11:23:23.692Z,52.32
2018-03-01T11:25:49.414Z,52.27
2018-03-01T11:28:15.145Z,54.70
2018-03-01T11:30:40.862Z,54.49
2018-03-01T11:33:06.593Z,54.20
2018-03-01T11:35:32.349Z,55.12
2018-03-01T11:37:58.082Z,54.00
2018-03-01T11:40:23.810Z,53.86
2018-03-01T11:42:49.543Z,54.28
2018-03-01T11:45:15.263Z,55.03
2018-03-01T11:47:40.999Z,55.71
2018-03-01T11:50:06.727Z,55.07
2018-03-01T11:52:32.446Z,55.42
2018-03-01T11:54:58.176Z,54.61
2018-03-01T11:57:23.898Z,54.36
2018-03-01T11:59:49.610Z,54.53
2018-03-01T12:02:15.337Z,53.45
2018-03-01T12:04:41.062Z,52.37
2018-03-01T12:07:06.780Z,52.65
2018-03-01T12:09:32.514Z,51.51
2018-03-01T12:11:58.250Z,51.60
2018-03-01T12:14:23.967Z,51.10
2018-03-01T12:16:49.700Z,50.75
2018-03-01T12:19:15.406Z,50.76
2018-03-01T12:21:41.122Z,50.33
2018-03-01T12:24:06.854Z,51.08
2018-03-01T12:26:32.586Z,51.86
2018-03-01T12:28:58.314Z,51.43
2018-03-01T12:31:24.038Z,50.69
2018-03-01T12:33:49.766Z,50.05
2018-03-01T12:36:15.486Z,49.91
2018-03-01T12:38:41.212Z,50.21
2018-03-01T12:41:06.939Z,49.59
2018-03-01T12:43:32.680Z,49.73
2018-03-01T12:45:58.457Z,49.50
2018-03-01T12:48:24.151Z,50.60
2018-03-01T12:50:49.978Z,50.91
2018-03-01T12:53:15.772Z,51.64
2018-03-01T12:55:41.855Z,52.44
2018-03-01T12:58:07.723Z,52.48
2018-03-01T13:00:33.549Z,52.80
2018-03-01T13:02:59.414Z,53.88
2018-03-01T13:05:25.335Z,54.36
2018-03-01T13:07:51.697Z,54.65
2018-03-01T13:10:17.584Z,54.77
2018-03-01T13:12:43.620Z,53.60
2018-03-01T13:15:11.163Z,54.19
2018-03-01T13:17:36.906Z,54.92
2018-03-01T13:20:02.647Z,55.41
2018-03-01T13:22:30.218Z,56.75
2018-03-01T13:24:58.034Z,57.50
2018-03-01T13:27:23.831Z,57.31
2018-03-01T13:29:49.571Z,57.62
2018-03-01T13:35:17.589Z,57.60
2018-03-01T13:37:43.337Z,58.01
2018-03-01T13:40:09.061Z,58.70
2018-03-01T13:42:37.672Z,59.77
2018-03-01T13:45:03.428Z,59.50
2018-03-01T13:47:32.372Z,58.94
2018-03-01T13:49:58.412Z,59.05
2018-03-01T13:52:24.391Z,58.48
2018-03-01T13:54:51.174Z,58.19
2018-03-01T13:57:17.246Z,57.68
2018-03-01T13:59:43.084Z,57.38
2018-03-01T14:02:08.986Z,57.62
2018-03-01T14:04:35.277Z,58.04
2018-03-01T14:10:09.717Z,58.54
2018-03-01T14:12:36.624Z,58.58
2018-03-01T14:15:09.434Z,58.66
2018-03-01T14:17:41.493Z,58.13
2018-03-01T14:20:10.419Z,58.32
2018-03-01T14:22:42.330Z,58.37
2018-03-01T14:25:10.378Z,58.94
2018-03-01T14:27:38.449Z,59.20
2018-03-01T14:30:05.650Z,59.28
2018-03-01T14:32:31.651Z,58.82
2018-03-01T14:34:57.608Z,58.73
2018-03-01T14:37:23.515Z,59.48
2018-03-01T14:39:49.409Z,59.33
2018-03-01T14:42:15.452Z,59.21
2018-03-01T14:44:41.317Z,59.75
2018-03-01T14:47:07.187Z,60.88
2018-03-01T14:49:32.984Z,59.96
2018-03-01T14:51:58.958Z,60.38
2018-03-01T14:54:24.903Z,60.36
2018-03-01T14:56:50.692Z,60.49
2018-03-01T14:59:16.614Z,60.29
2018-03-01T15:01:42.585Z,60.63
2018-03-01T15:04:08.346Z,60.81
2018-03-01T15:06:34.113Z,60.56
2018-03-01T15:08:59.880Z,61.29
2018-03-01T15:11:25.957Z,61.20
2018-03-01T15:13:51.768Z,60.71
2018-03-01T15:16:17.585Z,60.72
2018-03-01T15:18:43.454Z,61.24
2018-03-01T15:21:09.437Z,61.51
2018-03-01T15:23:35.276Z,61.91
2018-03-01T15:26:01.073Z,62.63
2018-03-01T15:28:26.859Z,62.46
2018-03-01T15:30:52.762Z,62.67
2018-03-01T15:33:18.722Z,63.46
2018-03-01T15:35:44.537Z,63.16
2018-03-01T15:38:10.337Z,63.04
2018-03-01T15:40:36.152Z,63.29
2018-03-01T15:43:02.004Z,63.44
2018-03-01T15:45:27.904Z,63.25
2018-03-01T15:47:53.765Z,63.18
2018-03-01T15:50:19.588Z,63.91
2018-03-01T15:52:45.423Z,63.87
2018-03-01T15:55:11.294Z,64.20
2018-03-01T15:57:37.159Z,64.08
2018-03-01T16:00:03.020Z,64.40
2018-03-01T16:02:28.900Z,64.85
2018-03-01T16:04:54.746Z,64.85
2018-03-01T16:07:20.727Z,64.97
2018-03-01T16:09:46.554Z,65.13
2018-03-01T16:12:12.486Z,65.14
2018-03-01T16:14:38.242Z,65.45
2018-03-01T16:17:03.977Z,65.97
2018-03-01T16:19:29.706Z,66.29
2018-03-01T16:21:55.444Z,66.40
2018-03-01T16:24:21.178Z,66.83
2018-03-01T16:26:46.911Z,66.86
2018-03-01T16:29:12.642Z,66.89
2018-03-01T16:31:38.390Z,67.13
2018-03-01T16:34:04.122Z,67.19
2018-03-01T16:36:29.859Z,67.47
2018-03-01T16:38:55.573Z,67.29
2018-03-01T16:41:21.302Z,67.67
2018-03-01T16:43:47.018Z,67.59
2018-03-01T16:46:12.754Z,67.54
2018-03-01T16:48:38.495Z,67.11
2018-03-01T16:51:04.240Z,67.25
2018-03-01T16:53:29.974Z,67.58
2018-03-01T16:55:55.714Z,67.64
2018-03-01T16:58:21.430Z,67.96
2018-03-01T17:00:47.179Z,68.27
2018-03-01T17:03:14.417Z,68.45
2018-03-01T17:05:40.295Z,68.34
2018-03-01T17:08:06.030Z,68.66
2018-03-01T17:10:31.773Z,68.89
2018-03-01T17:12:57.498Z,68.67
2018-03-01T17:15:23.214Z,68.88
2018-03-01T17:17:48.941Z,69.43
2018-03-01T17:20:14.675Z,69.69
2018-03-01T17:22:40.432Z,68.62
2018-03-01T17:25:06.169Z,69.44
2018-03-01T17:27:31.910Z,69.25
2018-03-01T17:29:57.656Z,69.73
2018-03-01T17:32:23.396Z,69.88
2018-03-01T17:34:49.137Z,70.13
2018-03-01T17:37:15.091Z,70.76
2018-03-01T17:39:40.825Z,70.96
2018-03-01T17:42:06.558Z,70.49
2018-03-01T17:44:32.293Z,70.32
2018-03-01T17:46:58.054Z,70.20
2018-03-01T17:49:23.783Z,70.08
2018-03-01T17:51:49.518Z,70.21
2018-03-01T17:54:15.272Z,70.74
2018-03-01T17:56:40.998Z,70.31
2018-03-01T17:59:06.740Z,70.78
2018-03-01T18:01:32.465Z,71.00
2018-03-01T18:03:58.207Z,71.31
2018-03-01T18:06:23.942Z,71.47
2018-03-01T18:08:49.698Z,71.65
2018-03-01T18:11:15.436Z,71.92
2018-03-01T18:13:41.163Z,72.45
2018-03-01T18:16:06.895Z,72.81
2018-03-01T18:18:32.628Z,72.74
2018-03-01T18:20:58.427Z,72.97
2018-03-01T18:23:24.131Z,73.46
2018-03-01T18:25:49.870Z,73.72
2018-03-01T18:28:15.645Z,73.62
2018-03-01T18:30:41.387Z,73.86
2018-03-01T18:33:07.112Z,74.25
2018-03-01T18:35:32.873Z,74.49
2018-03-01T18:37:59.019Z,74.38
2018-03-01T18:40:24.823Z,74.72
2018-03-01T18:42:50.542Z,74.96
2018-03-01T18:45:16.270Z,75.15
2018-03-01T18:47:41.994Z,75.28
2018-03-01T18:50:07.794Z,75.42
2018-03-01T18:52:33.593Z,75.19
2018-03-01T18:54:59.391Z,75.36
2018-03-01T18:57:25.135Z,75.35
2018-03-01T18:59:50.969Z,75.62
2018-03-01T19:02:16.810Z,75.56
2018-03-01T19:04:42.680Z,75.93
2018-03-01T19:07:08.510Z,75.63
2018-03-01T19:09:34.390Z,75.62
2018-03-01T19:12:00.137Z,75.22
2018-03-01T19:14:25.890Z,75.30
2018-03-01T19:16:51.635Z,74.77
2018-03-01T19:19:18.116Z,74.36
2018-03-01T19:21:44.037Z,73.89
2018-03-01T19:24:11.664Z,73.50
2018-03-01T19:26:37.938Z,73.52
2018-03-01T19:29:04.880Z,73.63
2018-03-01T19:31:31.006Z,73.62
2018-03-01T19:33:57.172Z,73.79
2018-03-01T19:36:22.952Z,73.32
2018-03-01T19:38:48.715Z,73.56
2018-03-01T19:41:14.465Z,73.37
2018-03-01T19:43:40.219Z,73.48
2018-03-01T19:46:06.096Z,73.61
2018-03-01T19:48:32.266Z,73.69
2018-03-01T19:50:58.022Z,73.98
2018-03-01T19:53:23.778Z,73.67
2018-03-01T19:55:49.513Z,74.32
2018-03-01T19:58:15.242Z,74.22
2018-03-01T20:00:41.010Z,74.48
2018-03-01T20:03:06.771Z,74.58
2018-03-01T20:05:32.527Z,74.92
2018-03-01T20:07:58.296Z,74.58
2018-03-01T20:10:24.042Z,74.46
2018-03-01T20:12:49.803Z,74.56
2018-03-01T20:15:16.836Z,74.63
2018-03-01T20:17:43.758Z,74.66
2018-03-01T20:20:09.552Z,74.49
2018-03-01T20:22:35.494Z,74.74
2018-03-01T20:25:01.241Z,74.60
2018-03-01T20:27:27.007Z,74.40
2018-03-01T20:29:52.761Z,74.45
2018-03-01T20:32:18.737Z,74.43
2018-03-01T20:34:44.473Z,74.71
2018-03-01T20:37:10.220Z,74.44
2018-03-01T20:39:35.980Z,74.51
2018-03-01T20:42:01.769Z,74.79
2018-03-01T20:44:27.483Z,74.90
2018-03-01T20:46:53.247Z,74.55
2018-03-01T20:49:18.998Z,74.99
2018-03-01T20:51:44.731Z,74.51
2018-03-01T20:54:10.485Z,74.53
2018-03-01T20:56:36.235Z,75.10
2018-03-01T20:59:01.988Z,74.91
2018-03-01T21:01:27.730Z,74.94
2018-03-01T21:03:53.490Z,74.70
2018-03-01T21:06:19.253Z,74.74
2018-03-01T21:08:44.999Z,74.09
2018-03-01T21:11:10.763Z,74.34
2018-03-01T21:13:36.514Z,74.52
2018-03-01T21:16:02.259Z,74.44
2018-03-01T21:18:28.015Z,74.31
2018-03-01T21:20:53.820Z,74.39
2018-03-01T21:23:19.572Z,74.08
2018-03-01T21:25:45.333Z,73.94
2018-03-01T21:28:11.103Z,73.83
2018-03-01T21:30:36.877Z,73.50
2018-03-01T21:33:02.614Z,73.92
2018-03-01T21:35:28.355Z,74.67
2018-03-01T21:37:54.105Z,75.06
2018-03-01T21:40:19.853Z,75.28
2018-03-01T21:42:45.609Z,75.37
2018-03-01T21:45:11.374Z,75.57
2018-03-01T21:47:37.098Z,75.62
2018-03-01T21:50:02.850Z,75.34
2018-03-01T21:52:28.583Z,75.41
2018-03-01T21:54:54.333Z,75.36
2018-03-01T21:57:20.079Z,75.13
2018-03-01T21:59:45.838Z,75.42
2018-03-01T22:02:11.587Z,75.53
2018-03-01T22:04:37.332Z,75.65
2018-03-01T22:07:03.102Z,75.59
2018-03-01T22:09:28.833Z,75.75
2018-03-01T22:11:54.587Z,75.66
2018-03-01T22:14:20.343Z,75.88
2018-03-01T22:16:46.095Z,75.98
2018-03-01T22:19:11.855Z,75.86
2018-03-01T22:21:37.598Z,76.01
2018-03-01T22:24:03.373Z,76.09
2018-03-01T22:26:29.130Z,76.21
2018-03-01T22:28:54.871Z,76.38
2018-03-01T22:31:20.616Z,76.38
2018-03-01T22:33:46.362Z,76.56
2018-03-01T22:36:12.105Z,76.47
2018-03-01T22:38:37.850Z,76.70
2018-03-01T22:41:03.611Z,76.89
2018-03-01T22:43:29.345Z,76.83
2018-03-01T22:45:55.079Z,76.88
2018-03-01T22:48:20.882Z,76.90
2018-03-01T22:50:46.623Z,76.66
2018-03-01T22:53:12.381Z,76.61
2018-03-01T22:55:38.114Z,76.47
2018-03-01T22:58:03.895Z,76.29
2018-03-01T23:00:42.070Z,76.19
2018-03-01T23:03:07.809Z,76.23
2018-03-01T23:05:33.550Z,76.42
2018-03-01T23:07:59.282Z,76.24
2018-03-01T23:10:25.027Z,76.29
2018-03-01T23:12:50.770Z,76.24
2018-03-01T23:15:16.555Z,76.17
2018-03-01T23:17:42.284Z,76.26
2018-03-01T23:20:08.011Z,76.11
2018-03-01T23:22:33.754Z,76.20
2018-03-01T23:24:59.498Z,76.02
2018-03-01T23:27:25.262Z,76.00
2018-03-01T23:29:51.006Z,75.96
2018-03-01T23:32:16.754Z,76.24
2018-03-01T23:34:42.490Z,76.68
2018-03-01T23:37:08.247Z,76.98
2018-03-01T23:39:33.995Z,77.00
2018-03-01T23:41:59.746Z,77.71
2018-03-01T23:44:25.487Z,77.93
2018-03-01T23:46:51.227Z,77.81
2018-03-01T23:49:16.981Z,78.00
2018-03-01T23:51:42.731Z,77.99
2018-03-01T23:54:08.488Z,77.71
2018-03-01T23:56:34.262Z,77.64
2018-03-01T23:59:00.098Z,77.17
